Time;durP1;ratioP1;P1;durP2;ratioP2;P2;SDS_P1;SDS_P2;PMS_P1;PMS_P2;Temp;Humidity;BMP_temperature;BMP_pressure;BME280_temperature;BME280_humidity;BME280_pressure;Samples;Min_cycle;Max_cycle;Signal;HPM_P1;HPM_P2
2023/04/14 00:02:18;;;;;;;8.40;7.10;;;;;;;10.01;75.76;99720.67;103706;280;38401;-70
2023/04/14 00:04:56;;;;;;;8.10;7.20;;;;;;;9.98;75.85;99724.08;103660;280;39373;-68
2023/04/14 00:07:29;;;;;;;7.90;7.10;;;;;;;9.96;76.36;99724.34;103088;280;908085;-68
2023/04/14 00:10:03;;;;;;;9.00;7.10;;;;;;;9.92;76.35;99727.15;103665;280;38568;-68
2023/04/14 00:12:37;;;;;;;9.10;6.90;;;;;;;9.87;76.05;99730.16;103697;280;38678;-70
2023/04/14 00:15:13;;;;;;;7.70;6.30;;;;;;;9.86;75.78;99731.27;103019;280;920844;-67
2023/04/14 00:17:55;;;;;;;9.50;6.70;;;;;;;9.85;76.15;99730.45;103534;281;38244;-71
2023/04/14 00:20:29;;;;;;;7.60;6.80;;;;;;;9.84;76.44;99722.48;103567;280;38277;-68
2023/04/14 00:23:03;;;;;;;8.20;6.80;;;;;;;9.83;76.09;99725.13;103580;280;38480;-70
2023/04/14 00:25:37;;;;;;;8.40;7.00;;;;;;;9.78;76.94;99723.61;103630;280;39000;-72
2023/04/14 00:28:10;;;;;;;9.80;7.20;;;;;;;9.74;76.58;99723.63;103607;280;39645;-68
2023/04/14 00:30:44;;;;;;;8.30;6.60;;;;;;;9.71;76.63;99721.66;103592;280;38506;-68
2023/04/14 00:33:18;;;;;;;8.60;7.30;;;;;;;9.68;76.85;99722.13;103606;280;39769;-68
2023/04/14 00:35:52;;;;;;;8.30;7.40;;;;;;;9.68;76.74;99721.10;103628;280;39922;-68
2023/04/14 00:38:26;;;;;;;9.30;7.90;;;;;;;9.67;76.92;99720.27;103649;280;38220;-68
2023/04/14 00:41:00;;;;;;;8.70;7.80;;;;;;;9.64;76.80;99715.54;103501;280;38441;-72
2023/04/14 00:43:34;;;;;;;7.90;6.90;;;;;;;9.60;76.84;99713.44;103639;280;39421;-70
2023/04/14 00:46:08;;;;;;;8.80;7.50;;;;;;;9.57;76.82;99714.78;103702;280;38467;-73
2023/04/14 00:48:42;;;;;;;9.60;8.40;;;;;;;9.55;77.04;99708.45;103783;280;38837;-71
2023/04/14 00:51:16;;;;;;;10.00;8.30;;;;;;;9.54;77.18;99711.10;103722;280;38619;-69
2023/04/14 00:53:51;;;;;;;10.20;8.80;;;;;;;9.49;77.23;99703.83;103676;280;38634;-70
2023/04/14 00:56:26;;;;;;;13.80;9.00;;;;;;;9.46;77.19;99705.73;103764;280;40158;-72
2023/04/14 00:59:01;;;;;;;14.20;8.40;;;;;;;9.41;77.19;99704.36;103773;280;39040;-71
2023/04/14 01:01:36;;;;;;;12.10;8.70;;;;;;;9.37;77.07;99704.18;103768;280;39068;-72
2023/04/14 01:04:10;;;;;;;10.80;8.20;;;;;;;9.37;77.17;99708.91;103664;280;38463;-70
2023/04/14 01:06:44;;;;;;;10.70;8.80;;;;;;;9.35;77.41;99708.61;103691;280;38244;-68
2023/04/14 01:09:26;;;;;;;9.90;8.90;;;;;;;9.35;77.30;99712.48;103651;280;40188;-68
2023/04/14 01:12:09;;;;;;;10.60;8.40;;;;;;;9.32;77.27;99714.34;103654;280;38503;-72
2023/04/14 01:14:45;;;;;;;10.50;7.90;;;;;;;9.26;77.12;99720.86;103644;276;38614;-70
2023/04/14 01:17:37;;;;;;;8.90;7.00;;;;;;;9.17;76.89;99718.13;103723;280;38577;-70
2023/04/14 01:20:18;;;;;;;8.00;7.20;;;;;;;9.02;76.49;99719.60;103663;280;38532;-68
2023/04/14 01:22:55;;;;;;;10.80;8.50;;;;;;;8.92;76.53;99721.78;103667;280;39798;-72
2023/04/14 01:26:06;;;;;;;8.80;7.80;;;;;;;8.83;76.42;99723.36;103609;280;175375;-70
2023/04/14 01:29:07;;;;;;;11.40;8.80;;;;;;;8.69;76.65;99723.25;103788;280;39714;-71
2023/04/14 01:31:46;;;;;;;10.00;8.00;;;;;;;8.54;76.64;99724.71;103760;280;38322;-70
2023/04/14 01:34:25;;;;;;;9.60;8.00;;;;;;;8.44;76.78;99726.31;103357;280;490640;-70
2023/04/14 01:37:06;;;;;;;10.00;8.00;;;;;;;8.36;76.89;99724.71;103549;280;39068;-71
2023/04/14 01:39:45;;;;;;;9.00;8.10;;;;;;;8.33;77.20;99724.50;103685;280;38693;-72
2023/04/14 01:42:22;;;;;;;13.30;9.10;;;;;;;8.27;77.04;99724.52;103636;280;39438;-68
2023/04/14 01:45:02;;;;;;;13.70;9.40;;;;;;;8.20;77.16;99723.21;103698;280;39407;-70
2023/04/14 01:47:37;;;;;;;10.20;8.60;;;;;;;8.12;77.45;99728.73;103682;280;39457;-72
2023/04/14 01:50:13;;;;;;;9.70;8.20;;;;;;;8.04;77.70;99726.45;103655;280;38739;-70
2023/04/14 01:52:52;;;;;;;11.40;9.20;;;;;;;7.98;77.63;99730.15;103702;280;38663;-68
2023/04/14 01:55:28;;;;;;;13.20;9.80;;;;;;;7.96;77.95;99727.27;103546;280;188900;-71
2023/04/14 01:58:02;;;;;;;11.90;9.50;;;;;;;7.96;78.10;99726.07;103653;280;39146;-68
2023/04/14 02:00:37;;;;;;;17.10;10.60;;;;;;;7.95;78.58;99727.31;103627;280;39644;-71
2023/04/14 02:03:11;;;;;;;14.90;11.00;;;;;;;7.95;79.06;99729.56;103673;280;39453;-71
2023/04/14 02:05:45;;;;;;;13.70;10.30;;;;;;;7.95;79.40;99731.15;103667;280;38718;-68
2023/04/14 02:08:20;;;;;;;13.60;10.30;;;;;;;7.94;79.52;99735.84;103649;280;38303;-68
2023/04/14 02:10:58;;;;;;;12.70;9.50;;;;;;;7.95;79.95;99736.14;103659;280;39687;-68
2023/04/14 02:13:39;;;;;;;12.50;9.70;;;;;;;7.96;80.12;99735.97;103637;280;39463;-70
2023/04/14 02:16:15;;;;;;;14.60;10.90;;;;;;;7.96;80.69;99736.14;103647;280;39693;-69
2023/04/14 02:18:49;;;;;;;13.40;10.60;;;;;;;7.95;80.87;99738.61;103637;280;38271;-71
2023/04/14 02:21:29;;;;;;;12.00;10.30;;;;;;;7.96;80.88;99738.90;103675;280;38248;-69
2023/04/14 02:24:06;;;;;;;18.80;11.50;;;;;;;7.97;80.77;99740.95;103602;280;38339;-70
2023/04/14 02:26:50;;;;;;;13.70;10.70;;;;;;;7.98;80.99;99736.75;103631;269;38626;-68
2023/04/14 02:29:27;;;;;;;11.70;10.40;;;;;;;7.98;81.58;99735.54;103589;280;39379;-70
2023/04/14 02:32:10;;;;;;;16.50;11.10;;;;;;;7.96;81.48;99736.83;103667;280;38522;-70
2023/04/14 02:34:48;;;;;;;14.50;11.20;;;;;;;7.96;81.83;99736.80;103658;280;38361;-72
2023/04/14 02:37:23;;;;;;;13.50;10.60;;;;;;;7.95;81.62;99734.77;103684;280;38297;-73
2023/04/14 02:40:01;;;;;;;14.20;10.40;;;;;;;7.96;81.60;99731.45;103779;280;40008;-73
2023/04/14 02:42:35;;;;;;;18.40;11.50;;;;;;;7.96;81.87;99734.23;103664;269;38367;-69
2023/04/14 02:45:15;;;;;;;14.00;10.80;;;;;;;7.95;81.85;99737.22;103631;280;39446;-67
2023/04/14 02:47:53;;;;;;;12.80;10.80;;;;;;;7.91;82.43;99738.58;103583;280;39455;-67
2023/04/14 02:50:27;;;;;;;12.50;10.10;;;;;;;7.87;82.17;99731.77;103664;280;39658;-70
2023/04/14 02:53:01;;;;;;;14.40;10.60;;;;;;;7.88;82.40;99735.05;103637;280;39934;-70
2023/04/14 02:55:35;;;;;;;14.80;11.70;;;;;;;7.89;82.63;99737.28;103655;280;39539;-71
2023/04/14 02:58:09;;;;;;;17.40;11.70;;;;;;;7.88;82.51;99739.56;103607;280;38740;-70
2023/04/14 03:00:43;;;;;;;13.20;10.80;;;;;;;7.83;82.56;99734.88;103658;280;38651;-73
2023/04/14 03:03:17;;;;;;;13.10;10.70;;;;;;;7.81;82.42;99745.21;103587;280;38952;-70
2023/04/14 03:05:53;;;;;;;13.40;10.70;;;;;;;7.79;82.69;99747.54;103621;280;38271;-72
2023/04/14 03:08:27;;;;;;;13.10;10.80;;;;;;;7.78;82.72;99744.44;103603;280;39657;-70
2023/04/14 03:11:01;;;;;;;14.70;11.10;;;;;;;7.77;82.50;99743.59;103634;280;38308;-70
2023/04/14 03:13:36;;;;;;;14.90;11.10;;;;;;;7.78;82.51;99742.36;103452;280;38329;-69
2023/04/14 03:16:18;;;;;;;13.20;11.90;;;;;;;7.75;82.52;99742.13;103636;280;39447;-70
2023/04/14 03:18:55;;;;;;;14.40;11.30;;;;;;;7.68;82.41;99743.09;103608;280;38475;-68
2023/04/14 03:21:32;;;;;;;13.20;10.80;;;;;;;7.64;82.38;99748.23;103589;280;39637;-69
2023/04/14 03:24:12;;;;;;;14.10;11.60;;;;;;;7.63;82.73;99754.69;103613;280;39005;-67
2023/04/14 03:26:48;;;;;;;14.90;12.20;;;;;;;7.59;82.67;99749.46;103601;280;38421;-70
2023/04/14 03:29:23;;;;;;;15.60;12.00;;;;;;;7.55;82.81;99750.98;103602;280;39664;-70
2023/04/14 03:31:57;;;;;;;15.10;11.30;;;;;;;7.52;82.89;99756.30;103477;280;38958;-69
2023/04/14 03:34:31;;;;;;;14.00;10.80;;;;;;;7.51;83.11;99754.27;103579;280;39942;-71
2023/04/14 03:37:05;;;;;;;13.70;11.30;;;;;;;7.51;83.14;99759.47;103591;280;39426;-68
2023/04/14 03:39:40;;;;;;;14.10;11.50;;;;;;;7.50;83.23;99754.13;103606;280;38604;-71
2023/04/14 03:42:15;;;;;;;13.90;12.10;;;;;;;7.48;83.29;99759.40;103609;280;39963;-72
2023/04/14 03:44:53;;;;;;;14.50;11.90;;;;;;;7.46;83.70;99759.98;103590;280;39911;-71
2023/04/14 03:47:29;;;;;;;14.60;11.60;;;;;;;7.41;83.24;99763.27;103590;280;38739;-68
2023/04/14 03:50:08;;;;;;;13.70;11.10;;;;;;;7.42;83.39;99768.96;103633;280;38550;-70
2023/04/14 03:52:42;;;;;;;12.80;11.20;;;;;;;7.46;83.52;99768.16;103615;280;38260;-70
2023/04/14 03:55:19;;;;;;;18.00;12.10;;;;;;;7.51;83.59;99769.36;103618;280;38470;-70
2023/04/14 03:57:53;;;;;;;19.10;12.30;;;;;;;7.53;83.53;99770.86;103604;280;39865;-71
2023/04/14 04:00:30;;;;;;;13.90;11.80;;;;;;;7.52;83.52;99773.14;103613;280;38815;-69
2023/04/14 04:03:04;;;;;;;15.20;11.80;;;;;;;7.49;83.54;99770.13;103649;280;38223;-70
2023/04/14 04:05:39;;;;;;;15.50;11.80;;;;;;;7.45;83.40;99770.92;103624;280;38846;-70
2023/04/14 04:08:15;;;;;;;14.60;12.00;;;;;;;7.47;83.64;99771.60;103573;280;38659;-67
2023/04/14 04:10:53;;;;;;;17.90;13.70;;;;;;;7.54;84.33;99773.44;103614;278;38371;-70
2023/04/14 04:13:26;;;;;;;20.40;14.70;;;;;;;7.57;84.90;99774.54;103616;280;38288;-71
2023/04/14 04:16:00;;;;;;;19.70;14.70;;;;;;;7.58;85.18;99775.55;103637;280;39436;-70
2023/04/14 04:18:34;;;;;;;19.40;13.90;;;;;;;7.61;85.30;99772.67;103635;280;38267;-72
2023/04/14 04:21:08;;;;;;;22.50;14.90;;;;;;;7.68;85.33;99776.40;103508;280;175557;-69
2023/04/14 04:23:56;;;;;;;19.10;14.80;;;;;;;7.75;85.27;99777.70;103639;280;38540;-68
2023/04/14 04:26:38;;;;;;;21.60;15.30;;;;;;;7.82;85.38;99781.61;103595;269;38500;-68
2023/04/14 04:29:15;;;;;;;20.80;14.50;;;;;;;7.84;85.53;99786.42;103589;280;39705;-68
2023/04/14 04:31:54;;;;;;;19.30;15.00;;;;;;;7.90;85.34;99782.21;103607;280;39670;-70
2023/04/14 04:34:31;;;;;;;17.20;14.40;;;;;;;7.97;85.56;99781.42;103588;280;38280;-69
2023/04/14 04:37:05;;;;;;;24.20;14.90;;;;;;;8.01;85.65;99787.69;103652;278;38760;-72
2023/04/14 04:39:38;;;;;;;18.70;15.20;;;;;;;8.02;85.22;99788.55;103660;280;38502;-71
2023/04/14 04:42:16;;;;;;;19.60;14.30;;;;;;;8.05;85.53;99792.77;103663;280;39908;-67
2023/04/14 04:44:52;;;;;;;19.10;14.20;;;;;;;8.06;85.69;99791.70;103579;280;38486;-69
2023/04/14 04:47:29;;;;;;;17.40;14.10;;;;;;;8.08;85.52;99792.67;103657;280;39449;-67
2023/04/14 04:50:05;;;;;;;17.00;12.70;;;;;;;8.14;85.68;99797.30;103616;280;39967;-68
2023/04/14 04:52:46;;;;;;;16.20;12.70;;;;;;;8.18;85.84;99801.31;103691;280;38336;-67
2023/04/14 04:55:26;;;;;;;16.80;13.00;;;;;;;8.22;85.73;99800.98;103597;280;38280;-69
2023/04/14 04:58:00;;;;;;;17.80;13.30;;;;;;;8.27;85.72;99801.84;103616;280;39161;-71
2023/04/14 05:00:34;;;;;;;18.30;13.80;;;;;;;8.31;86.08;99801.35;103644;269;38623;-69
2023/04/14 05:03:08;;;;;;;21.10;14.10;;;;;;;8.35;85.99;99800.15;103612;280;38262;-71
2023/04/14 05:05:51;;;;;;;25.00;15.70;;;;;;;8.39;85.96;99798.33;103647;280;39446;-68
2023/04/14 05:08:34;;;;;;;26.50;16.40;;;;;;;8.40;85.77;99794.06;103638;280;39765;-70
2023/04/14 05:11:08;;;;;;;23.60;16.50;;;;;;;8.43;85.92;99794.83;103379;280;41244;-67
2023/04/14 05:13:49;;;;;;;22.90;16.80;;;;;;;8.47;86.30;99793.63;103645;280;38324;-69
2023/04/14 05:16:28;;;;;;;22.70;16.40;;;;;;;8.50;86.37;99794.90;103570;280;172696;-70
2023/04/14 05:19:04;;;;;;;21.80;15.60;;;;;;;8.58;86.54;99797.58;103669;280;38882;-70
2023/04/14 05:21:38;;;;;;;26.90;17.50;;;;;;;8.66;86.50;99798.31;103656;280;38598;-70
2023/04/14 05:24:13;;;;;;;31.80;19.60;;;;;;;8.73;86.65;99798.70;103449;282;38667;-70
2023/04/14 05:26:47;;;;;;;34.00;20.90;;;;;;;8.77;86.80;99799.25;103685;280;38970;-73
2023/04/14 05:29:21;;;;;;;30.50;20.60;;;;;;;8.79;86.74;99797.79;103641;280;38293;-74
2023/04/14 05:31:55;;;;;;;30.10;20.50;;;;;;;8.84;86.72;99796.75;103638;280;38481;-69
2023/04/14 05:34:29;;;;;;;33.10;20.70;;;;;;;8.88;86.87;99798.31;103601;280;39929;-69
2023/04/14 05:37:03;;;;;;;34.50;22.40;;;;;;;8.94;87.07;99798.36;103650;280;39859;-69
2023/04/14 05:39:38;;;;;;;44.20;28.20;;;;;;;9.00;86.77;99798.66;103658;280;38824;-69
2023/04/14 05:42:12;;;;;;;43.50;25.90;;;;;;;9.09;86.78;99797.95;103672;280;39671;-69
2023/04/14 05:44:49;;;;;;;37.00;24.70;;;;;;;9.19;86.70;99798.77;103606;280;38553;-69
2023/04/14 05:47:28;;;;;;;33.90;23.50;;;;;;;9.27;86.60;99802.27;103632;280;39740;-67
2023/04/14 05:50:09;;;;;;;36.00;24.80;;;;;;;9.30;86.37;99802.30;103580;280;38354;-68
2023/04/14 05:52:44;;;;;;;36.60;23.20;;;;;;;9.35;86.42;99801.39;103673;280;38619;-72
2023/04/14 05:55:20;;;;;;;45.80;26.50;;;;;;;9.42;86.30;99799.71;103450;280;41672;-70
2023/04/14 05:57:54;;;;;;;39.60;25.70;;;;;;;9.49;86.29;99804.45;103675;280;38240;-70
2023/04/14 06:00:29;;;;;;;38.60;26.50;;;;;;;9.54;86.06;99803.38;103654;280;38246;-72
2023/04/14 06:03:04;;;;;;;40.80;28.70;;;;;;;9.58;85.88;99799.41;103671;280;38997;-71
2023/04/14 06:05:41;;;;;;;32.00;23.50;;;;;;;9.70;86.10;99796.96;103682;280;39379;-69
2023/04/14 06:08:18;;;;;;;35.10;21.40;;;;;;;9.78;85.79;99803.04;103683;280;38664;-72
2023/04/14 06:10:56;;;;;;;31.70;20.90;;;;;;;9.83;85.58;99803.14;103674;280;38234;-71
2023/04/14 06:13:31;;;;;;;27.50;19.70;;;;;;;9.86;85.46;99808.79;103724;280;38274;-70
2023/04/14 06:16:08;;;;;;;29.00;20.10;;;;;;;9.92;85.33;99810.09;103682;280;38256;-68
2023/04/14 06:18:43;;;;;;;28.60;19.40;;;;;;;10.02;85.45;99807.71;103681;280;38228;-71
2023/04/14 06:21:17;;;;;;;31.40;20.30;;;;;;;10.16;85.46;99806.20;103671;280;38530;-69
2023/04/14 06:23:53;;;;;;;26.90;20.20;;;;;;;10.31;85.10;99812.55;103645;280;39413;-70
2023/04/14 06:26:27;;;;;;;26.60;20.00;;;;;;;10.44;84.71;99813.38;103680;280;39404;-71
2023/04/14 06:29:01;;;;;;;25.00;18.10;;;;;;;10.51;84.21;99815.96;103643;280;39516;-71
2023/04/14 06:31:35;;;;;;;21.60;17.10;;;;;;;10.56;83.61;99813.63;103628;280;38354;-70
2023/04/14 06:34:09;;;;;;;24.50;18.20;;;;;;;10.64;83.70;99813.27;103641;280;38513;-68
2023/04/14 06:36:44;;;;;;;22.70;18.10;;;;;;;10.88;83.57;99812.48;103537;280;175264;-70
2023/04/14 06:39:19;;;;;;;26.70;19.70;;;;;;;11.07;83.29;99812.77;103657;280;39646;-68
2023/04/14 06:41:54;;;;;;;29.40;20.60;;;;;;;11.40;83.56;99812.17;103625;280;39637;-70
2023/04/14 06:44:28;;;;;;;26.90;18.30;;;;;;;11.66;82.25;99813.30;103621;280;38375;-71
2023/04/14 06:47:02;;;;;;;22.90;17.40;;;;;;;11.76;80.39;99814.55;103664;280;38343;-74
2023/04/14 06:49:37;;;;;;;25.30;18.90;;;;;;;11.77;79.81;99815.55;103651;280;38936;-73
2023/04/14 06:52:11;;;;;;;29.60;19.40;;;;;;;11.81;79.49;99810.28;103594;280;38751;-71
2023/04/14 06:54:45;;;;;;;30.90;19.50;;;;;;;11.95;79.58;99811.85;103613;280;38426;-73
2023/04/14 06:57:19;;;;;;;23.60;20.20;;;;;;;12.12;78.72;99805.88;103642;280;38232;-71
2023/04/14 06:59:55;;;;;;;21.60;17.40;;;;;;;12.19;77.83;99807.62;103629;280;39407;-71
2023/04/14 07:02:29;;;;;;;19.80;15.80;;;;;;;12.32;78.26;99802.88;103567;280;39707;-71
2023/04/14 07:05:06;;;;;;;23.00;16.50;;;;;;;12.59;77.57;99799.09;103614;280;38468;-69
2023/04/14 07:07:40;;;;;;;26.60;19.30;;;;;;;12.94;76.63;99802.03;103601;280;39595;-73
2023/04/14 07:10:15;;;;;;;19.10;15.80;;;;;;;13.29;76.32;99801.13;103614;280;38282;-70
2023/04/14 07:12:49;;;;;;;22.80;16.60;;;;;;;13.68;75.41;99796.20;103613;280;38480;-73
2023/04/14 07:15:23;;;;;;;23.60;17.70;;;;;;;13.99;73.27;99797.30;103633;280;38523;-71
2023/04/14 07:17:57;;;;;;;17.40;14.60;;;;;;;14.18;72.15;99792.09;103657;280;39416;-73
2023/04/14 07:20:32;;;;;;;14.30;12.60;;;;;;;14.41;70.77;99793.78;103642;280;38488;-74
2023/04/14 07:23:06;;;;;;;15.10;13.60;;;;;;;15.03;71.56;99792.09;103599;280;38466;-71
2023/04/14 07:25:40;;;;;;;13.70;12.10;;;;;;;15.95;69.16;99789.95;103639;280;38344;-72
2023/04/14 07:28:14;;;;;;;12.80;11.70;;;;;;;16.64;65.03;99788.61;103597;280;39477;-73
2023/04/14 07:30:48;;;;;;;13.00;11.60;;;;;;;17.46;64.45;99787.65;103596;269;39968;-71
2023/04/14 07:33:22;;;;;;;10.90;8.70;;;;;;;18.28;62.15;99786.09;103627;280;40277;-71
2023/04/14 07:35:59;;;;;;;10.70;8.40;;;;;;;18.81;59.96;99789.10;103606;280;38460;-72
2023/04/14 07:38:33;;;;;;;8.70;7.90;;;;;;;19.09;57.16;99789.10;103617;280;38456;-72
2023/04/14 07:41:08;;;;;;;9.90;8.90;;;;;;;19.63;55.79;99786.46;103681;280;38671;-72
2023/04/14 07:43:42;;;;;;;8.80;7.90;;;;;;;20.21;54.18;99786.84;103523;280;38735;-72
2023/04/14 07:46:16;;;;;;;8.10;7.30;;;;;;;20.66;51.53;99789.56;103669;280;38276;-72
2023/04/14 07:48:50;;;;;;;6.90;6.20;;;;;;;21.06;50.84;99791.84;103641;280;38220;-74
2023/04/14 07:51:24;;;;;;;6.90;5.90;;;;;;;21.68;50.96;99790.36;103547;282;39616;-73
2023/04/14 07:53:58;;;;;;;7.60;6.90;;;;;;;22.49;48.09;99789.22;103610;280;38394;-74
2023/04/14 07:56:32;;;;;;;8.40;7.60;;;;;;;22.98;46.51;99789.94;103562;282;38732;-73
2023/04/14 07:59:06;;;;;;;6.60;6.00;;;;;;;23.38;43.79;99791.83;103573;280;39888;-71
2023/04/14 08:01:41;;;;;;;7.00;6.40;;;;;;;23.63;43.75;99786.98;103624;280;39441;-73
2023/04/14 08:04:16;;;;;;;7.30;6.60;;;;;;;23.98;42.79;99785.72;103675;280;38244;-71
2023/04/14 08:06:50;;;;;;;7.20;6.50;;;;;;;24.59;42.50;99788.29;103700;280;38842;-74
2023/04/14 08:09:24;;;;;;;6.20;5.80;;;;;;;24.89;39.93;99786.10;103663;280;38665;-73
2023/04/14 08:11:58;;;;;;;7.10;6.20;;;;;;;25.07;40.35;99784.92;103645;280;38362;-72
2023/04/14 08:14:33;;;;;;;6.30;5.70;;;;;;;25.48;39.77;99786.66;103477;280;38635;-72
2023/04/14 08:17:08;;;;;;;8.20;6.30;;;;;;;25.53;37.63;99787.98;103615;280;37973;-74
2023/04/14 08:19:42;;;;;;;9.00;7.20;;;;;;;25.23;38.06;99782.10;103687;280;38976;-74
2023/04/14 08:22:16;;;;;;;6.10;5.50;;;;;;;24.97;37.71;99787.78;103628;280;38472;-75
2023/04/14 08:24:50;;;;;;;8.40;6.10;;;;;;;24.37;38.13;99779.73;103533;280;174456;-74
2023/04/14 08:27:24;;;;;;;9.10;6.20;;;;;;;24.25;38.89;99782.02;103594;280;38389;-77
2023/04/14 08:29:59;;;;;;;6.50;5.30;;;;;;;24.18;38.73;99785.63;103622;280;38447;-76
2023/04/14 08:32:33;;;;;;;11.40;5.70;;;;;;;24.47;38.66;99778.45;103481;286;39863;-74
2023/04/14 08:35:10;;;;;;;13.40;5.60;;;;;;;24.89;38.91;99774.52;103504;280;174424;-72
2023/04/14 08:37:45;;;;;;;8.10;5.40;;;;;;;25.47;37.42;99777.85;103467;271;38243;-70
2023/04/14 08:40:20;;;;;;;9.50;6.40;;;;;;;25.58;36.26;99780.11;103639;280;38538;-69
2023/04/14 08:42:54;;;;;;;8.20;5.80;;;;;;;25.67;35.70;99775.85;103645;280;39412;-70
2023/04/14 08:45:32;;;;;;;8.70;5.40;;;;;;;25.81;35.69;99778.77;103637;280;38463;-70
2023/04/14 08:48:09;;;;;;;7.80;5.20;;;;;;;25.93;35.51;99782.27;103653;280;38236;-70
2023/04/14 08:50:53;;;;;;;8.40;6.20;;;;;;;25.80;34.95;99779.27;103648;280;38848;-69
2023/04/14 08:53:27;;;;;;;8.00;5.20;;;;;;;25.78;35.42;99775.20;103633;280;38803;-69
2023/04/14 08:56:02;;;;;;;12.00;6.10;;;;;;;25.90;35.05;99767.92;103636;280;38246;-70
2023/04/14 08:58:37;;;;;;;7.50;5.70;;;;;;;26.02;34.78;99773.59;103630;280;38510;-69
2023/04/14 09:01:11;;;;;;;9.80;5.60;;;;;;;26.01;34.75;99772.42;103672;280;39081;-69
2023/04/14 09:03:45;;;;;;;10.30;5.60;;;;;;;25.85;34.52;99768.30;103607;280;38564;-70
2023/04/14 09:06:19;;;;;;;8.20;4.70;;;;;;;25.75;34.57;99773.61;103056;280;890721;-70
2023/04/14 09:08:55;;;;;;;6.20;5.50;;;;;;;25.42;34.36;99771.61;103601;280;39256;-70
2023/04/14 09:11:29;;;;;;;10.30;5.40;;;;;;;25.12;35.84;99767.48;103667;280;39811;-69
2023/04/14 09:14:03;;;;;;;8.00;4.60;;;;;;;25.27;34.93;99776.35;103644;280;38909;-70
2023/04/14 09:16:37;;;;;;;4.60;4.10;;;;;;;24.98;34.60;99769.13;103536;280;174457;-69
2023/04/14 09:19:11;;;;;;;7.60;4.80;;;;;;;24.44;34.92;99772.55;103638;280;38246;-69
2023/04/14 09:21:45;;;;;;;4.60;4.20;;;;;;;24.17;35.66;99761.30;103676;280;39404;-69
2023/04/14 09:24:23;;;;;;;4.90;4.50;;;;;;;24.20;35.91;99761.48;103637;280;38466;-73
2023/04/14 09:26:57;;;;;;;7.60;5.20;;;;;;;24.32;36.03;99761.55;103640;280;38536;-76
2023/04/14 09:29:32;;;;;;;8.80;4.80;;;;;;;24.44;35.85;99762.40;103640;280;38554;-74
2023/04/14 09:32:07;;;;;;;5.20;4.40;;;;;;;24.32;35.60;99763.14;103552;280;40337;-74
2023/04/14 09:34:54;;;;;;;6.80;4.50;;;;;;;23.76;35.95;99760.42;103236;280;514636;-75
2023/04/14 09:37:29;;;;;;;4.50;4.20;;;;;;;22.82;36.92;99768.08;103676;280;38546;-74
2023/04/14 09:40:04;;;;;;;6.40;4.70;;;;;;;22.00;38.16;99768.70;103629;277;39463;-75
2023/04/14 09:42:45;;;;;;;8.00;5.50;;;;;;;21.51;39.62;99767.34;103660;280;38258;-73
2023/04/14 09:45:21;;;;;;;7.80;5.10;;;;;;;21.17;40.56;99771.35;103623;281;38768;-73
2023/04/14 09:48:07;;;;;;;6.70;5.10;;;;;;;20.93;41.05;99765.70;103657;280;38741;-75
2023/04/14 09:51:00;;;;;;;7.60;6.10;;;;;;;20.61;41.80;99768.90;103695;280;39391;-74
2023/04/14 09:53:36;;;;;;;7.70;5.60;;;;;;;20.44;42.32;99763.91;103641;280;38817;-75
2023/04/14 09:56:12;;;;;;;8.30;5.30;;;;;;;20.28;42.95;99763.49;103683;280;39646;-71
2023/04/14 09:58:46;;;;;;;5.30;4.80;;;;;;;20.18;43.33;99762.14;103657;280;38493;-72
2023/04/14 10:01:22;;;;;;;6.50;5.40;;;;;;;20.15;43.57;99760.23;103645;280;38618;-73
2023/04/14 10:03:56;;;;;;;10.40;6.10;;;;;;;20.09;44.03;99753.46;103545;280;172033;-73
2023/04/14 10:06:31;;;;;;;10.80;6.10;;;;;;;20.22;44.28;99755.77;103695;280;38486;-71
2023/04/14 10:09:04;;;;;;;7.00;5.80;;;;;;;20.24;44.24;99753.61;103670;280;39661;-71
2023/04/14 10:11:39;;;;;;;7.70;5.50;;;;;;;20.12;44.15;99753.21;103660;280;38257;-73
2023/04/14 10:14:13;;;;;;;8.50;5.60;;;;;;;20.07;44.63;99750.48;103672;280;38511;-72
2023/04/14 10:16:47;;;;;;;5.80;5.20;;;;;;;20.10;44.84;99747.39;103627;280;39403;-73
2023/04/14 10:19:21;;;;;;;5.50;5.00;;;;;;;20.13;44.89;99745.89;103661;280;38507;-74
2023/04/14 10:21:55;;;;;;;6.10;5.50;;;;;;;20.08;44.49;99745.59;103455;280;39850;-72
2023/04/14 10:24:29;;;;;;;8.30;5.90;;;;;;;19.96;44.73;99746.30;102990;280;900394;-73
2023/04/14 10:27:04;;;;;;;10.10;6.30;;;;;;;19.95;45.11;99740.90;103719;280;38342;-74
2023/04/14 10:29:40;;;;;;;8.70;6.40;;;;;;;19.90;44.76;99742.41;103688;280;39428;-74
2023/04/14 10:32:16;;;;;;;12.40;6.60;;;;;;;19.78;44.86;99740.42;103648;280;39796;-71
2023/04/14 10:35:09;;;;;;;8.90;5.80;;;;;;;19.63;45.27;99738.42;103677;280;39470;-70
2023/04/14 10:37:48;;;;;;;6.60;6.00;;;;;;;19.60;45.33;99741.14;103637;280;38369;-75
2023/04/14 10:40:23;;;;;;;6.30;5.70;;;;;;;19.39;45.52;99742.16;103673;280;39452;-72
2023/04/14 10:42:57;;;;;;;6.00;5.30;;;;;;;19.22;45.88;99750.48;103476;280;38652;-72
2023/04/14 10:45:31;;;;;;;6.50;5.50;;;;;;;19.03;46.11;99744.31;103641;280;39404;-71
2023/04/14 10:48:06;;;;;;;5.90;4.80;;;;;;;18.96;46.30;99747.88;103670;280;38338;-73
2023/04/14 10:50:48;;;;;;;7.40;5.70;;;;;;;18.94;46.90;99743.30;103682;280;38272;-73
2023/04/14 10:53:22;;;;;;;10.10;6.00;;;;;;;19.00;47.03;99747.74;103698;280;38315;-71
2023/04/14 10:55:57;;;;;;;6.80;5.50;;;;;;;18.83;46.90;99747.60;103051;280;897101;-72
2023/04/14 10:58:34;;;;;;;12.40;6.70;;;;;;;18.45;47.20;99739.64;103666;280;39699;-71
2023/04/14 11:01:29;;;;;;;11.60;6.80;;;;;;;18.12;47.83;99742.86;103678;280;38633;-71
2023/04/14 11:04:22;;;;;;;9.70;5.40;;;;;;;17.84;48.75;99734.26;103629;280;38843;-71
2023/04/14 11:06:58;;;;;;;6.70;6.10;;;;;;;17.86;49.14;99734.48;103609;280;37252;-73
2023/04/14 11:09:37;;;;;;;7.50;5.90;;;;;;;17.74;49.23;99731.70;103664;280;38717;-72
2023/04/14 11:12:24;;;;;;;;;;;;;;;17.57;49.51;99734.23;103651;280;39429;-73
2023/04/14 11:15:03;;;;;;;5.30;4.80;;;;;;;17.47;49.66;99731.59;103600;280;38350;-70
2023/04/14 11:17:41;;;;;;;5.60;5.00;;;;;;;17.50;49.60;99730.34;103673;280;39511;-72
2023/04/14 11:20:22;;;;;;;5.10;4.50;;;;;;;17.37;49.25;99724.48;103646;280;38438;-72
2023/04/14 11:22:59;;;;;;;7.90;5.20;;;;;;;17.33;49.37;99726.95;103631;280;38360;-73
2023/04/14 11:25:35;;;;;;;4.80;4.30;;;;;;;17.37;49.37;99726.59;103645;280;38629;-74
2023/04/14 11:28:09;;;;;;;5.00;4.60;;;;;;;17.37;49.28;99723.27;103582;280;38245;-73
2023/04/14 11:30:44;;;;;;;6.00;4.40;;;;;;;17.30;49.32;99724.49;103639;280;39147;-73
2023/04/14 11:33:18;;;;;;;5.00;4.40;;;;;;;17.17;49.15;99717.35;103586;280;38698;-74
2023/04/14 11:35:52;;;;;;;5.30;4.50;;;;;;;17.03;48.83;99720.50;103590;280;38838;-74
2023/04/14 11:38:26;;;;;;;4.90;4.40;;;;;;;16.95;48.96;99709.69;103597;280;39607;-73
2023/04/14 11:41:01;;;;;;;4.60;3.70;;;;;;;16.94;49.27;99703.06;103453;280;38541;-74
2023/04/14 11:43:35;;;;;;;5.10;4.10;;;;;;;17.05;49.83;99699.27;103604;280;38269;-73
2023/04/14 11:46:09;;;;;;;5.30;3.90;;;;;;;17.20;50.26;99699.14;103618;280;39069;-71
2023/04/14 11:48:43;;;;;;;5.50;3.90;;;;;;;17.32;50.41;99704.06;103584;280;38420;-73
2023/04/14 11:51:18;;;;;;;5.40;3.70;;;;;;;17.34;49.04;99704.44;103573;280;38251;-73
2023/04/14 11:53:53;;;;;;;4.80;3.80;;;;;;;17.35;48.81;99706.46;103595;280;39975;-73
2023/04/14 11:56:28;;;;;;;4.30;4.00;;;;;;;17.33;48.76;99704.03;103629;280;38513;-73
2023/04/14 11:59:05;;;;;;;4.90;3.60;;;;;;;17.27;49.04;99705.50;103579;280;39989;-72
2023/04/14 12:01:41;;;;;;;7.40;3.70;;;;;;;17.22;48.87;99702.71;103624;280;39145;-74
2023/04/14 12:04:16;;;;;;;4.60;4.20;;;;;;;17.19;49.30;99695.34;103589;280;38279;-74
2023/04/14 12:06:50;;;;;;;4.50;3.10;;;;;;;17.19;48.52;99692.75;103600;280;39558;-71
2023/04/14 12:09:28;;;;;;;6.30;3.90;;;;;;;17.15;48.86;99689.34;103592;280;38264;-73
2023/04/14 12:12:09;;;;;;;4.00;3.40;;;;;;;17.18;48.99;99683.44;103605;280;38489;-74